Latest Coastal Weather Observations for Strahan

IDT60701

Issued at 5:55 pm EST Friday 22 August 2014 (issued every 10 minutes, with the page automatically refreshed every 10 minutes)

About coastal observations | Map of coastal stations | Coastal observations for TAS | Marine services | Other Formats
Station Details ID: 097072 Name: STRAHAN AERODROME Lat: -42.16 Lon: 145.29 Height: 21.0 m
Data from the previous 72 hours. | See also: Recent months at Strahan
Date/Time
EST
Temp

°C
Wind Pressure Rain
since 9am
mm
Weather Cloud Vis
km
Sea
Height
m
Swell
Dir
 
Speed
knots
Gust
knots
hPa Trend Height
m
Period
s
Dir
22/05:30pm 12.3 N 9 15 1028.9 - 0.0 - Partly cloudy 10 - - - -
22/05:00pm 13.3 NNE 9 17 1028.7 - 0.0 - Partly cloudy 10 - - - -
22/04:30pm 14.7 NNE 9 14 1028.6 - 0.0 - Cloudy 10 - - - -
22/04:00pm 14.4 N 11 18 1028.4 - 0.0 - Partly cloudy 10 - - - -
22/03:30pm 14.1 N 13 19 1028.4 - 0.0 - Partly cloudy 10 - - - -
22/03:00pm 14.5 N 15 23 1028.5 - 0.0 - Partly cloudy 10 - - - -
22/02:30pm 15.6 NNE 11 20 1028.6 - 0.0 - Partly cloudy 10 - - - -
22/02:00pm 15.0 N 13 21 1028.6 - 0.0 - Partly cloudy 10 - - - -
22/01:40pm 15.9 N 15 25 1028.7 - 0.0 - - 10 - - - -
22/01:30pm 15.6 N 17 25 1028.8 - 0.0 - - 10 - - - -
22/01:01pm 15.6 N 15 25 1029.0 - 0.0 - Partly cloudy 10 - - - -
22/01:00pm 15.7 N 14 22 1029.0 - 0.0 - Partly cloudy 10 - - - -
22/12:30pm 15.4 N 14 23 1029.3 - 0.0 - Partly cloudy 10 - - - -
22/12:03pm 15.3 N 15 27 1029.4 - 0.0 - - 10 - - - -
22/12:00pm 15.7 N 13 22 1029.5 - 0.0 - - 10 - - - -
22/11:30am 15.5 NNE 12 18 1029.9 - 0.0 - - 10 - - - -
22/11:00am 15.2 NNE 11 19 1030.3 - 0.0 - - 10 - - - -
22/10:30am 14.3 NNE 14 21 1030.4 - 0.0 - - 10 - - - -
22/10:00am 14.1 NE 8 11 1030.4 - 0.0 - - 10 - - - -
22/09:30am 12.8 NE 8 13 1030.6 - 0.0 - Partly cloudy 10 - - - -
22/09:00am 11.6 NNE 6 10 1030.8 - 0.0 - - 10 - - - -
22/08:30am 9.8 NE 6 9 1030.8 - 0.0 - - 10 - - - -
22/08:00am 7.9 NE 8 11 1030.7 - 0.0 - - 10 - - - -
22/07:30am 6.4 NE 8 11 1030.5 - 0.0 - - 10 - - - -
22/07:00am 6.5 NE 8 11 1030.3 - 0.0 - - 10 - - - -
22/06:30am 5.6 NE 9 10 1030.4 - 0.0 - - 10 - - - -
22/06:00am 3.5 E 2 5 1030.7 - 0.0 - Mostly clear 10 - - - -
22/05:30am 3.5 CALM 0 0 1030.9 - 0.0 - - 10 - - - -
22/05:00am 3.7 CALM 0 0 1030.9 - 0.0 - Partly cloudy 10 - - - -
22/04:30am 4.6 CALM 0 0 1030.8 - 0.0 - Partly cloudy 10 - - - -
22/04:00am 4.2 CALM 0 0 1030.8 - 0.0 - Partly cloudy 10 - - - -
22/03:30am 4.6 ENE 5 6 1030.6 - 0.0 - Cloudy 10 - - - -
22/03:00am 4.1 E 3 4 1030.5 - 0.0 - Cloudy 10 - - - -
22/02:30am 4.0 ENE 3 5 1030.6 - 0.0 - Cloudy 10 - - - -
22/02:00am 4.5 ENE 3 5 1030.8 - 0.0 - Partly cloudy 10 - - - -
22/01:30am 3.8 ENE 3 4 1030.9 - 0.0 - Partly cloudy 10 - - - -
22/01:00am 3.6 ENE 5 5 1030.8 - 0.0 - Partly cloudy 10 - - - -
22/12:30am 4.5 NE 3 5 1030.9 - 0.0 - Partly cloudy 10 - - - -
22/12:00am 5.0 E 3 4 1030.9 - 0.0 - Mostly clear 10 - - - -
 
Date/Time
EST
Temp

°C
Wind Pressure Rain
since 9am
mm
Weather Cloud Vis
km
Sea
Height
m
Swell
Dir
 
Speed
knots
Gust
knots
hPa Trend Height
m
Period
s
Dir
21/11:30pm 5.7 E 4 5 1031.1 - 0.0 - Partly cloudy 10 - - - -
21/11:00pm 6.4 NW 2 4 1031.1 - 0.0 - Partly cloudy 10 - - - -
21/10:30pm 6.7 CALM 0 0 1031.4 - 0.0 - Cloudy 10 - - - -
21/10:00pm 6.6 E 2 4 1031.4 - 0.0 - Cloudy 10 - - - -
21/09:30pm 6.9 NE 1 4 1031.6 - 0.0 - Cloudy 10 - - - -
21/09:00pm 7.1 SE 3 4 1031.6 - 0.0 - Cloudy 10 - - - -
21/08:30pm 7.1 NNW 2 7 1031.6 - 0.0 - Cloudy 10 - - - -
21/08:00pm 7.2 CALM 0 3 1031.4 - 0.0 - Cloudy 10 - - - -
21/07:30pm 7.4 E 4 5 1031.2 - 0.0 - Cloudy 10 - - - -
21/07:00pm 8.0 NNE 5 5 1031.1 - 0.0 - Cloudy 10 - - - -
21/06:30pm 8.5 E 3 4 1031.0 - 0.0 - Cloudy 10 - - - -
21/06:00pm 8.6 CALM 0 0 1030.7 - 0.0 - Partly cloudy 10 - - - -
21/05:30pm 9.8 SSW 2 5 1030.4 - 0.0 - Cloudy 9 - - - -
21/05:00pm 10.6 CALM 0 3 1030.1 - 0.0 - Cloudy 10 - - - -
21/04:30pm 10.7 S 2 4 1030.1 - 0.0 - Cloudy 10 - - - -
21/04:00pm 11.3 SSE 7 9 1029.9 - 0.0 - Cloudy 10 - - - -
21/03:30pm 11.9 SSE 5 8 1030.0 - 0.0 - Cloudy 10 - - - -
21/03:00pm 12.1 SE 5 9 1030.1 - 0.0 - Mostly cloudy 10 - - - -
21/02:30pm 13.2 NE 7 13 1030.2 - 0.0 - Cloudy 10 - - - -
21/02:00pm 12.7 N 9 14 1030.5 - 0.0 - Cloudy 10 - - - -
21/01:30pm 12.4 N 6 10 1030.7 - 0.0 - Partly cloudy 10 - - - -
21/01:00pm 14.0 N 9 14 1030.9 - 0.0 - Cloudy 10 - - - -
21/12:30pm 13.2 ENE 3 7 1031.2 - 0.0 - Partly cloudy 10 - - - -
21/12:00pm 13.4 SSE 5 8 1031.5 - 0.0 - Partly cloudy 10 - - - -
21/11:30am 13.0 NNE 5 10 1031.8 - 0.0 - - 10 - - - -
21/11:00am 11.3 SE 5 7 1032.1 - 0.0 - - 10 - - - -
21/10:30am 9.8 SE 4 6 1032.3 - 0.0 - - 10 - - - -
21/10:00am 7.9 SE 3 5 1032.5 - 0.0 - - 10 - - - -
21/09:30am 7.1 SSE 2 4 1032.6 - 0.0 - - 10 - - - -
21/09:00am 6.1 SSE 3 4 1032.5 - 0.0 - - 10 - - - -
21/08:30am 4.7 ESE 3 4 1032.4 - 0.0 - - 10 - - - -
21/08:00am 3.7 ESE 3 4 1032.2 - 0.0 - - 10 - - - -
21/07:42am 2.7 SE 3 4 1032.0 - 0.0 - - 7 - - - -
21/07:30am 2.6 SE 2 4 1031.8 - 0.0 - Partly cloudy 3 - - - -
21/07:04am 1.2 CALM 0 0 1031.5 - 0.0 - Partly cloudy 5 - - - -
21/07:00am 1.7 CALM 0 0 1031.4 - 0.0 - Partly cloudy 10 - - - -
21/06:40am 2.5 CALM 0 0 1031.2 - 0.0 - Partly cloudy 10 - - - -
21/06:30am 2.3 CALM 0 0 1031.1 - 0.0 - Partly cloudy 5 - - - -
21/06:21am 1.6 CALM 0 0 1031.0 - 0.0 - - 5 - - - -
21/06:20am 1.6 CALM 0 0 1031.0 - 0.0 - - 10 - - - -
21/06:00am 1.7 CALM 0 0 1030.8 - 0.0 - - 2 - - - -
21/05:54am 1.7 CALM 0 0 1030.8 - 0.0 - Partly cloudy 5 - - - -
21/05:49am 2.3 CALM 0 0 1030.8 - 0.0 - Partly cloudy 10 - - - -
21/05:30am 2.0 CALM 0 0 1030.8 - 0.0 - Partly cloudy 2 - - - -
21/05:27am 2.1 CALM 0 0 1030.8 - 0.0 - Partly cloudy 5 - - - -
21/05:00am 2.3 CALM 0 0 1030.7 - 0.0 - Cloudy 10 - - - -
21/04:30am 2.4 NE 2 3 1030.7 - 0.0 - Partly cloudy 10 - - - -
21/04:04am 2.1 CALM 0 0 1030.5 - 0.0 - Cloudy 10 - - - -
21/04:00am 2.1 CALM 0 0 1030.4 - 0.0 - Cloudy 10 - - - -
21/03:48am 2.5 CALM 0 0 1030.4 - 0.0 - Partly cloudy 5 - - - -
21/03:30am 1.6 NE 1 3 1030.3 - 0.0 - Partly cloudy 10 - - - -
21/03:00am 2.2 NE 4 5 1030.3 - 0.0 - - 10 - - - -
21/02:30am 2.7 NNE 3 4 1030.4 - 0.0 - - 10 - - - -
21/02:00am 2.9 NE 3 4 1030.4 - 0.0 - Partly cloudy 10 - - - -
21/01:30am 3.4 CALM 0 0 1030.3 - 0.0 - Cloudy 10 - - - -
21/01:00am 3.9 ENE 3 4 1030.2 - 0.0 - Cloudy 10 - - - -
21/12:30am 3.2 ENE 4 5 1030.3 - 0.0 - Cloudy 10 - - - -
21/12:00am 2.8 NNE 3 4 1030.1 - 0.0 - Mostly cloudy 10 - - - -
 
Date/Time
EST
Temp

°C
Wind Pressure Rain
since 9am
mm
Weather Cloud Vis
km
Sea
Height
m
Swell
Dir
 
Speed
knots
Gust
knots
hPa Trend Height
m
Period
s
Dir
20/11:30pm 2.8 NNE 4 5 1030.0 - 0.0 - Partly cloudy 10 - - - -
20/11:00pm 2.7 NNE 4 5 1029.9 - 0.0 - - 10 - - - -
20/10:30pm 3.4 NNE 4 5 1029.7 - 0.0 - - 10 - - - -
20/10:00pm 1.8 E 3 4 1029.7 - 0.0 - - 10 - - - -
20/09:30pm 2.3 CALM 0 0 1029.7 - 0.0 - - 10 - - - -
20/09:26pm 2.4 CALM 0 0 1029.7 - 0.0 - - 10 - - - -
20/09:10pm 3.1 CALM 0 0 1029.6 - 0.0 - - 5 - - - -
20/09:00pm 3.2 CALM 0 0 1029.5 - 0.0 - - 10 - - - -
20/08:46pm 3.5 CALM 0 0 1029.4 - 0.0 - - 10 - - - -
20/08:30pm 3.6 CALM 0 0 1029.3 - 0.0 - - 2 - - - -
20/08:26pm 4.0 CALM 0 0 1029.3 - 0.0 - - 3 - - - -
20/08:00pm 4.2 SE 1 3 1029.2 - 0.0 - - 10 - - - -
20/07:30pm 5.3 SE 4 5 1029.0 - 0.0 - - 10 - - - -
20/07:00pm 6.0 SSE 5 7 1028.7 - 0.0 - - 10 - - - -
20/06:30pm 5.7 S 5 6 1028.4 - 0.0 - - 10 - - - -
20/06:00pm 7.3 S 6 7 1028.0 - 0.0 - - 10 - - - -
20/05:30pm 8.0 SSW 4 6 1027.7 - 0.0 - - 10 - - - -
20/05:00pm 9.2 SW 6 8 1027.5 - 0.0 - - 10 - - - -
20/04:30pm 10.0 SSW 6 8 1027.3 - 0.0 - - 10 - - - -
20/04:00pm 10.0 SSW 8 10 1027.2 - 0.0 - Partly cloudy 10 - - - -
20/03:30pm 9.6 SSW 9 10 1027.2 - 0.0 - Partly cloudy 10 - - - -
20/03:00pm 10.5 S 9 11 1027.1 - 0.0 - Cloudy 10 - - - -
20/02:30pm 10.8 S 10 13 1027.1 - 0.0 - Cloudy 10 - - - -
20/02:00pm 11.1 S 8 10 1027.0 - 0.0 - Cloudy 10 - - - -
20/01:30pm 10.9 S 8 11 1026.9 - 0.0 - Partly cloudy 10 - - - -
20/01:00pm 11.4 S 7 10 1027.0 - 0.0 - - 10 - - - -
20/12:30pm 11.1 SSE 7 10 1027.2 - 0.0 - - 10 - - - -
20/12:00pm 11.0 SSE 7 10 1027.3 - 0.0 - - 10 - - - -
20/11:30am 10.1 S 6 8 1027.6 - 0.0 - - 10 - - - -
20/11:00am 9.3 SSE 5 7 1027.7 - 0.0 - Partly cloudy 10 - - - -
20/10:30am 8.3 SSE 5 8 1027.7 - 0.0 - Partly cloudy 10 - - - -
20/10:00am 8.2 SSE 5 6 1027.5 - 0.0 - - 10 - - - -
20/09:30am 7.5 SSE 3 5 1027.4 - 0.0 - Partly cloudy 10 - - - -
20/09:00am 6.8 NNE 2 3 1027.1 - 0.6 - - 10 - - - -
20/08:30am 5.6 CALM 0 0 1027.0 - 0.6 - Partly cloudy 10 - - - -
20/08:11am 3.8 CALM 0 0 1026.8 - 0.6 - Partly cloudy 10 - - - -
20/08:00am 3.1 CALM 0 0 1026.6 - 0.6 - Partly cloudy 4 - - - -
20/07:30am 2.6 E 1 5 1026.4 - 0.6 - Partly cloudy 0.5 - - - -
20/07:00am 2.1 CALM 0 0 1026.2 - 0.6 - Partly cloudy 2 - - - -
20/06:57am 2.3 CALM 0 0 1026.1 - 0.6 - Partly cloudy 4 - - - -
20/06:55am 2.3 CALM 0 0 1026.0 - 0.6 - Partly cloudy 10 - - - -
20/06:35am 2.7 CALM 0 0 1025.8 - 0.6 - Partly cloudy 5 - - - -
20/06:30am 3.5 CALM 0 0 1025.7 - 0.6 - Partly cloudy 10 - - - -
20/06:00am 3.1 CALM 0 0 1025.6 - 0.6 - Cloudy 10 - - - -
20/05:30am 3.9 SE 3 3 1025.6 - 0.6 - Partly cloudy 10 - - - -
20/05:00am 3.5 NNE 2 4 1025.4 - 0.6 - Partly cloudy 10 - - - -
20/04:30am 3.8 NE 3 5 1025.3 - 0.6 - Partly cloudy 10 - - - -
20/04:00am 3.4 CALM 0 0 1025.3 - 0.6 - Partly cloudy 10 - - - -
20/03:30am 3.6 NE 5 6 1025.2 - 0.6 - Partly cloudy 10 - - - -
20/03:00am 3.8 NE 4 5 1025.3 - 0.6 Recent precip. Cloudy 10 - - - -
20/02:31am 4.0 NNE 5 6 1025.5 - 0.6 - Partly cloudy 10 - - - -
20/02:30am 4.0 NNE 5 6 1025.5 - 0.6 - Partly cloudy 10 - - - -
20/02:04am 4.0 NNE 3 4 1025.7 - 0.4 - Partly cloudy 5 - - - -
20/02:00am 4.0 N 3 5 1025.7 - 0.4 - Partly cloudy 10 - - - -
20/01:30am 2.5 NNW 5 5 1025.5 - 0.4 - Partly cloudy 10 - - - -
20/01:00am 3.0 CALM 0 0 1025.4 - 0.4 - Partly cloudy 4 - - - -
20/12:43am 3.1 NE 3 5 1025.3 - 0.4 - - 5 - - - -
20/12:30am 4.2 E 1 4 1025.3 - 0.4 - - 10 - - - -
20/12:00am 4.1 E 3 5 1025.3 - 0.4 - Partly cloudy 10 - - - -
 
Date/Time
EST
Temp

°C
Wind Pressure Rain
since 9am
mm
Weather Cloud Vis
km
Sea
Height
m
Swell
Dir
 
Speed
knots
Gust
knots
hPa Trend Height
m
Period
s
Dir
19/11:30pm 4.9 NNE 5 6 1025.3 - 0.4 - Cloudy 10 - - - -
19/11:00pm 4.7 NNE 5 6 1025.2 - 0.4 - Partly cloudy 10 - - - -
19/10:30pm 5.3 NNE 3 4 1025.4 - 0.4 - Partly cloudy 10 - - - -
19/10:17pm 5.2 SSW 1 5 1025.4 - 0.4 - Partly cloudy 10 - - - -
19/10:04pm 4.7 SSW 4 5 1025.4 - 0.4 - Partly cloudy 5 - - - -
19/10:00pm 4.5 SW 4 7 1025.5 - 0.4 - Partly cloudy 10 - - - -
19/09:30pm 5.0 NNE 5 6 1025.2 - 0.4 - Partly cloudy 10 - - - -
19/09:00pm 5.7 NNE 3 5 1025.3 - 0.4 Recent precip. Mostly cloudy 10 - - - -
19/08:30pm 5.6 CALM 0 0 1025.3 - 0.2 - Partly cloudy 10 - - - -
19/08:09pm 5.5 ENE 3 4 1025.3 - 0.2 - Partly cloudy 10 - - - -
19/08:00pm 5.3 E 3 5 1025.1 - 0.2 - Partly cloudy 10 - - - -
19/07:38pm 5.1 E 4 5 1025.1 - 0.2 - Partly cloudy 6 - - - -
19/07:30pm 5.4 ENE 4 5 1025.1 - 0.2 - Partly cloudy 10 - - - -
19/07:09pm 5.8 SE 3 4 1025.0 - 0.2 - Partly cloudy 10 - - - -
19/07:00pm 6.1 S 3 4 1024.9 - 0.2 - Partly cloudy 6 - - - -
19/06:37pm 6.0 SSW 4 10 1024.8 - 0.2 - Partly cloudy 5 - - - -
19/06:30pm 5.4 E 2 3 1024.6 - 0.0 - Partly cloudy 10 - - - -
19/06:00pm 6.2 CALM 0 0 1024.2 - 0.0 - Partly cloudy 10 - - - -

Other Formats:

Comma delimited format used in spreadsheet applications
http://www.bom.gov.au/fwo/IDT60701/IDT60701.94956.axf

JavaScript Object Notation format (JSON) in row-major order
http://www.bom.gov.au/fwo/IDT60701/IDT60701.94956.json